Time;durP1;ratioP1;P1;durP2;ratioP2;P2;SDS_P1;SDS_P2;PMS_P1;PMS_P2;Temp;Humidity;BMP_temperature;BMP_pressure;BME280_temperature;BME280_humidity;BME280_pressure;Samples;Min_cycle;Max_cycle;Signal;HPM_P1;HPM_P2
2023/06/09 00:00:12;;;;;;;;;;;;;;;;;;141567;1244;22248;-81
2023/06/09 00:03:33;;;;;;;;;;;;;;;;;;141531;1244;22364;-81
2023/06/09 00:06:35;;;;;;;;;;;;;;;;;;141545;1244;22261;-80
2023/06/09 00:09:36;;;;;;;;;;;;;;;;;;141526;1244;22620;-81
2023/06/09 00:12:37;;;;;;;;;;;;;;;;;;141545;1244;22263;-81
2023/06/09 00:15:38;;;;;;;;;;;;;;;;;;141294;1244;22366;-80
2023/06/09 00:18:40;;;;;;;;;;;;;;;;;;141694;1244;22174;-81
2023/06/09 00:21:44;;;;;;;;;;;;;;;;;;141733;1244;22240;-83
2023/06/09 00:24:45;;;;;;;;;;;;;;;;;;141748;1244;22169;-84
2023/06/09 00:27:46;;;;;;;;;;;;;;;;;;141751;1244;22218;-81
2023/06/09 00:30:47;;;;;;;;;;;;;;;;;;141758;1242;22203;-81
2023/06/09 00:33:51;;;;;;;;;;;;;;;;;;141782;1240;22167;-82
2023/06/09 00:36:52;;;;;;;;;;;;;;;;;;141750;1244;22247;-81
2023/06/09 00:39:54;;;;;;;;;;;;;;;;;;141710;1244;22269;-80
2023/06/09 00:42:55;;;;;;;;;;;;;;;;;;141483;1244;22281;-81
2023/06/09 00:45:56;;;;;;;;;;;;;;;;;;141549;1244;22337;-81
2023/06/09 00:48:57;;;;;;;;;;;;;;;;;;141487;1240;22160;-81
2023/06/09 00:51:58;;;;;;;;;;;;;;;;;;141507;1244;22306;-81
2023/06/09 00:54:59;;;;;;;;;;;;;;;;;;141502;1244;22260;-81
2023/06/09 00:58:00;;;;;;;;;;;;;;;;;;141511;1244;22162;-82
2023/06/09 01:01:02;;;;;;;;;;;;;;;;;;141508;1244;22241;-81
2023/06/09 01:04:03;;;;;;;;;;;;;;;;;;141526;1244;22247;-81
2023/06/09 01:07:04;;;;;;;;;;;;;;;;;;141536;1244;22137;-81
2023/06/09 01:10:05;;;;;;;;;;;;;;;;;;141572;1244;22300;-82
2023/06/09 01:13:06;;;;;;;;;;;;;;;;;;141556;1244;22152;-81
2023/06/09 01:16:07;;;;;;;;;;;;;;;;;;141571;1244;22413;-82
2023/06/09 01:19:08;;;;;;;;;;;;;;;;;;141595;1244;22289;-81
2023/06/09 01:22:09;;;;;;;;;;;;;;;;;;141579;1244;22160;-82
2023/06/09 01:25:10;;;;;;;;;;;;;;;;;;141570;1244;22239;-81
2023/06/09 01:28:11;;;;;;;;;;;;;;;;;;141613;1244;22184;-81
2023/06/09 01:31:15;;;;;;;;;;;;;;;;;;141587;1244;22233;-82
2023/06/09 01:34:16;;;;;;;;;;;;;;;;;;141580;1244;22255;-81
2023/06/09 01:37:19;;;;;;;;;;;;;;;;;;141548;1244;22313;-82
2023/06/09 01:40:20;;;;;;;;;;;;;;;;;;141556;1244;22291;-81
2023/06/09 01:43:22;;;;;;;;;;;;;;;;;;141552;1244;22150;-81
2023/06/09 01:46:23;;;;;;;;;;;;;;;;;;141527;1244;22854;-81
2023/06/09 01:49:24;;;;;;;;;;;;;;;;;;141547;1244;22180;-80
2023/06/09 01:52:25;;;;;;;;;;;;;;;;;;141533;1244;22164;-81
2023/06/09 01:55:26;;;;;;;;;;;;;;;;;;141527;1244;22135;-81
2023/06/09 01:58:27;;;;;;;;;;;;;;;;;;141529;1244;22162;-81
2023/06/09 02:01:28;;;;;;;;;;;;;;;;;;141529;1244;22272;-82
2023/06/09 02:04:29;;;;;;;;;;;;;;;;;;141528;1244;22224;-80
2023/06/09 02:07:30;;;;;;;;;;;;;;;;;;141537;1244;22230;-81
2023/06/09 02:10:31;;;;;;;;;;;;;;;;;;141503;1244;22585;-82
2023/06/09 02:13:32;;;;;;;;;;;;;;;;;;141528;1244;22441;-81
2023/06/09 02:16:34;;;;;;;;;;;;;;;;;;141508;1244;22154;-81
2023/06/09 02:19:37;;;;;;;;;;;;;;;;;;141546;1244;22285;-81
2023/06/09 02:22:38;;;;;;;;;;;;;;;;;;141517;1244;22145;-81
2023/06/09 02:25:40;;;;;;;;;;;;;;;;;;141510;1244;22193;-81
2023/06/09 02:28:41;;;;;;;;;;;;;;;;;;141537;1244;22218;-81
2023/06/09 02:31:42;;;;;;;;;;;;;;;;;;141532;1244;22241;-81
2023/06/09 02:34:45;;;;;;;;;;;;;;;;;;141529;1244;22228;-82
2023/06/09 02:37:46;;;;;;;;;;;;;;;;;;141507;1244;22262;-81
2023/06/09 02:40:47;;;;;;;;;;;;;;;;;;141524;1244;22183;-81
2023/06/09 02:43:48;;;;;;;;;;;;;;;;;;141517;1244;22349;-82
2023/06/09 02:46:49;;;;;;;;;;;;;;;;;;141508;1244;22740;-81
2023/06/09 02:49:50;;;;;;;;;;;;;;;;;;141509;1244;22624;-82
2023/06/09 02:52:52;;;;;;;;;;;;;;;;;;141524;1244;22267;-82
2023/06/09 02:55:53;;;;;;;;;;;;;;;;;;141506;1244;22203;-82
2023/06/09 02:58:54;;;;;;;;;;;;;;;;;;141519;1244;22241;-82
2023/06/09 03:01:55;;;;;;;;;;;;;;;;;;141518;1244;22161;-82
2023/06/09 03:04:56;;;;;;;;;;;;;;;;;;141525;1244;22251;-81
2023/06/09 03:07:58;;;;;;;;;;;;;;;;;;141539;1240;22218;-82
2023/06/09 03:10:59;;;;;;;;;;;;;;;;;;141507;1244;22222;-81
2023/06/09 03:14:00;;;;;;;;;;;;;;;;;;141530;1244;22778;-81
2023/06/09 03:17:01;;;;;;;;;;;;;;;;;;141499;1244;22178;-82
2023/06/09 03:20:05;;;;;;;;;;;;;;;;;;141501;1244;22522;-82
2023/06/09 03:23:07;;;;;;;;;;;;;;;;;;141511;1244;22220;-81
2023/06/09 03:26:08;;;;;;;;;;;;;;;;;;141492;1244;22578;-81
2023/06/09 03:29:09;;;;;;;;;;;;;;;;;;141507;1244;22244;-82
2023/06/09 03:32:10;;;;;;;;;;;;;;;;;;141527;1244;22505;-82
2023/06/09 03:35:11;;;;;;;;;;;;;;;;;;141483;1244;22155;-81
2023/06/09 03:38:15;;;;;;;;;;;;;;;;;;141480;1244;22261;-82
2023/06/09 03:41:16;;;;;;;;;;;;;;;;;;141493;1244;22778;-84
2023/06/09 03:44:17;;;;;;;;;;;;;;;;;;141464;1244;22348;-82
2023/06/09 03:47:18;;;;;;;;;;;;;;;;;;141410;1244;22366;-83
2023/06/09 03:50:20;;;;;;;;;;;;;;;;;;141405;1244;22251;-83
2023/06/09 03:53:21;;;;;;;;;;;;;;;;;;141416;1244;22167;-83
2023/06/09 03:56:22;;;;;;;;;;;;;;;;;;141381;1244;22154;-83
2023/06/09 03:59:23;;;;;;;;;;;;;;;;;;141441;1244;22170;-85
2023/06/09 04:02:24;;;;;;;;;;;;;;;;;;141476;1244;22639;-83
2023/06/09 04:05:26;;;;;;;;;;;;;;;;;;141497;1244;22250;-82
2023/06/09 04:08:27;;;;;;;;;;;;;;;;;;141424;1244;22350;-82
2023/06/09 04:11:29;;;;;;;;;;;;;;;;;;141437;1244;22230;-82
2023/06/09 04:14:30;;;;;;;;;;;;;;;;;;141420;1244;22681;-82
2023/06/09 04:17:32;;;;;;;;;;;;;;;;;;141423;1244;22210;-83
2023/06/09 04:20:34;;;;;;;;;;;;;;;;;;141430;1244;22154;-82
2023/06/09 04:23:38;;;;;;;;;;;;;;;;;;141372;1244;22215;-81
2023/06/09 04:26:40;;;;;;;;;;;;;;;;;;141380;1244;22243;-81
2023/06/09 04:29:45;;;;;;;;;;;;;;;;;;141441;1244;22279;-81
2023/06/09 04:32:50;;;;;;;;;;;;;;;;;;141421;1244;22278;-82
2023/06/09 04:35:53;;;;;;;;;;;;;;;;;;141494;1244;22248;-82
2023/06/09 04:38:55;;;;;;;;;;;;;;;;;;141576;1244;22266;-80
2023/06/09 04:42:03;;;;;;;;;;;;;;;;;;141597;1244;22212;-82
2023/06/09 04:45:04;;;;;;;;;;;;;;;;;;141491;1244;22407;-82
2023/06/09 04:48:05;;;;;;;;;;;;;;;;;;141455;1244;22212;-81
2023/06/09 04:51:07;;;;;;;;;;;;;;;;;;141394;1244;22621;-82
2023/06/09 04:54:09;;;;;;;;;;;;;;;;;;141411;1244;22166;-82
2023/06/09 04:57:10;;;;;;;;;;;;;;;;;;141394;1244;22243;-82
2023/06/09 05:00:15;;;;;;;;;;;;;;;;;;141371;1244;22170;-81
2023/06/09 05:03:17;;;;;;;;;;;;;;;;;;141354;1244;22817;-82
2023/06/09 05:06:18;;;;;;;;;;;;;;;;;;141262;1244;212351;-81
2023/06/09 05:09:19;;;;;;;;;;;;;;;;;;141431;1244;22177;-82
2023/06/09 05:12:21;;;;;;;;;;;;;;;;;;141504;1244;22273;-85
2023/06/09 05:15:23;;;;;;;;;;;;;;;;;;141450;1244;22375;-83
2023/06/09 05:18:26;;;;;;;;;;;;;;;;;;141389;1244;22276;-84
2023/06/09 05:21:28;;;;;;;;;;;;;;;;;;141344;1240;22142;-84
2023/06/09 05:24:29;;;;;;;;;;;;;;;;;;141346;1244;22145;-84
2023/06/09 05:27:30;;;;;;;;;;;;;;;;;;141334;1244;22248;-83
2023/06/09 05:30:33;;;;;;;;;;;;;;;;;;141376;1244;22250;-84
2023/06/09 05:33:35;;;;;;;;;;;;;;;;;;141361;1244;22207;-83
2023/06/09 05:36:39;;;;;;;;;;;;;;;;;;141313;1244;22247;-83
2023/06/09 05:39:43;;;;;;;;;;;;;;;;;;141335;1240;22212;-83
2023/06/09 05:42:44;;;;;;;;;;;;;;;;;;141370;1244;22246;-82
2023/06/09 05:45:45;;;;;;;;;;;;;;;;;;141414;1244;22316;-82
2023/06/09 05:48:46;;;;;;;;;;;;;;;;;;141374;1238;22148;-83
2023/06/09 05:51:48;;;;;;;;;;;;;;;;;;141406;1244;22238;-85
2023/06/09 05:54:52;;;;;;;;;;;;;;;;;;141378;1244;22224;-85
2023/06/09 05:57:54;;;;;;;;;;;;;;;;;;141370;1244;22669;-84
2023/06/09 06:00:57;;;;;;;;;;;;;;;;;;141360;1244;22779;-83
2023/06/09 06:03:58;;;;;;;;;;;;;;;;;;141386;1244;22663;-83
2023/06/09 06:07:00;;;;;;;;;;;;;;;;;;141387;1244;22265;-84
2023/06/09 06:10:03;;;;;;;;;;;;;;;;;;141382;1244;22248;-85
2023/06/09 06:13:05;;;;;;;;;;;;;;;;;;141412;1244;22248;-84
2023/06/09 06:16:06;;;;;;;;;;;;;;;;;;141454;1244;22320;-86
2023/06/09 06:19:08;;;;;;;;;;;;;;;;;;141380;1244;22173;-84
2023/06/09 06:22:10;;;;;;;;;;;;;;;;;;141307;1244;22151;-84
2023/06/09 06:25:13;;;;;;;;;;;;;;;;;;141334;1244;22839;-83
2023/06/09 06:28:14;;;;;;;;;;;;;;;;;;141302;1244;22673;-86
2023/06/09 06:31:16;;;;;;;;;;;;;;;;;;141278;1244;22178;-83
2023/06/09 06:34:18;;;;;;;;;;;;;;;;;;141272;1244;22847;-84
2023/06/09 06:37:19;;;;;;;;;;;;;;;;;;141335;1244;22266;-84
2023/06/09 06:40:20;;;;;;;;;;;;;;;;;;141312;1244;22635;-85
2023/06/09 06:43:21;;;;;;;;;;;;;;;;;;141278;1244;22232;-83
2023/06/09 06:46:25;;;;;;;;;;;;;;;;;;141306;1241;22345;-83
2023/06/09 06:49:26;;;;;;;;;;;;;;;;;;141363;1244;22324;-83
2023/06/09 06:52:31;;;;;;;;;;;;;;;;;;141286;1240;22170;-83
2023/06/09 06:55:33;;;;;;;;;;;;;;;;;;141321;1244;22264;-84
2023/06/09 06:58:44;;;;;;;;;;;;;;;;;;141316;1244;22221;-85
2023/06/09 07:01:45;;;;;;;;;;;;;;;;;;141337;1244;22248;-84
2023/06/09 07:04:56;;;;;;;;;;;;;;;;;;141306;1238;22178;-84
2023/06/09 07:08:01;;;;;;;;;;;;;;;;;;141299;1244;22259;-86
2023/06/09 07:11:02;;;;;;;;;;;;;;;;;;141329;1244;22241;-84
2023/06/09 07:14:03;;;;;;;;;;;;;;;;;;141294;1244;22833;-83
2023/06/09 07:17:04;;;;;;;;;;;;;;;;;;141321;1244;22733;-84
2023/06/09 07:20:06;;;;;;;;;;;;;;;;;;141303;1244;22253;-83
2023/06/09 07:23:07;;;;;;;;;;;;;;;;;;141258;1244;22154;-83
2023/06/09 07:26:08;;;;;;;;;;;;;;;;;;141285;1244;22723;-83
2023/06/09 07:29:09;;;;;;;;;;;;;;;;;;141282;1244;22188;-83
2023/06/09 07:32:10;;;;;;;;;;;;;;;;;;141303;1244;22263;-83
2023/06/09 07:35:12;;;;;;;;;;;;;;;;;;141343;1244;22955;-85
2023/06/09 07:38:15;;;;;;;;;;;;;;;;;;141361;1244;22773;-85
2023/06/09 07:41:16;;;;;;;;;;;;;;;;;;141334;1244;22207;-84
2023/06/09 07:44:17;;;;;;;;;;;;;;;;;;141358;1244;22335;-83
2023/06/09 07:47:18;;;;;;;;;;;;;;;;;;141396;1244;22212;-86
2023/06/09 07:50:22;;;;;;;;;;;;;;;;;;141364;1244;22157;-83
2023/06/09 07:53:23;;;;;;;;;;;;;;;;;;141337;1244;22153;-82
2023/06/09 07:56:24;;;;;;;;;;;;;;;;;;141367;1244;22182;-82
2023/06/09 07:59:26;;;;;;;;;;;;;;;;;;141342;1242;22170;-83
2023/06/09 08:02:30;;;;;;;;;;;;;;;;;;141303;1244;22266;-83
2023/06/09 08:05:31;;;;;;;;;;;;;;;;;;141305;1244;22747;-82
2023/06/09 08:08:33;;;;;;;;;;;;;;;;;;141266;1244;22249;-81
2023/06/09 08:11:34;;;;;;;;;;;;;;;;;;141278;1244;22339;-82
2023/06/09 08:14:35;;;;;;;;;;;;;;;;;;141305;1240;22394;-82
2023/06/09 08:17:36;;;;;;;;;;;;;;;;;;141358;1244;22726;-82
2023/06/09 08:20:39;;;;;;;;;;;;;;;;;;141233;1244;22682;-82
2023/06/09 08:23:40;;;;;;;;;;;;;;;;;;141158;1244;22335;-83
2023/06/09 08:26:41;;;;;;;;;;;;;;;;;;141302;1244;22150;-82
2023/06/09 08:29:42;;;;;;;;;;;;;;;;;;141232;1244;22783;-81
2023/06/09 08:32:44;;;;;;;;;;;;;;;;;;141241;1244;22172;-82
2023/06/09 08:35:46;;;;;;;;;;;;;;;;;;141315;1244;22728;-82
2023/06/09 08:38:47;;;;;;;;;;;;;;;;;;141419;1244;22161;-84
2023/06/09 08:41:49;;;;;;;;;;;;;;;;;;141289;1244;22219;-83
2023/06/09 08:44:50;;;;;;;;;;;;;;;;;;141271;1244;22794;-82
2023/06/09 08:47:51;;;;;;;;;;;;;;;;;;141288;1244;22273;-82
2023/06/09 08:50:53;;;;;;;;;;;;;;;;;;141262;1244;22317;-81
2023/06/09 08:53:54;;;;;;;;;;;;;;;;;;141296;1244;22679;-82
2023/06/09 08:56:55;;;;;;;;;;;;;;;;;;141293;1244;22249;-83
2023/06/09 08:59:56;;;;;;;;;;;;;;;;;;141368;1240;22246;-84
2023/06/09 09:02:57;;;;;;;;;;;;;;;;;;141463;1244;22382;-83
2023/06/09 09:05:59;;;;;;;;;;;;;;;;;;141484;1244;22131;-82
2023/06/09 09:09:02;;;;;;;;;;;;;;;;;;141482;1244;22113;-84
2023/06/09 09:12:03;;;;;;;;;;;;;;;;;;141473;1244;22234;-83
2023/06/09 09:15:05;;;;;;;;;;;;;;;;;;141416;1244;22323;-84
2023/06/09 09:18:08;;;;;;;;;;;;;;;;;;141387;1244;22187;-83
2023/06/09 09:21:09;;;;;;;;;;;;;;;;;;141297;1244;22325;-84
2023/06/09 09:24:12;;;;;;;;;;;;;;;;;;141292;1244;22123;-83
2023/06/09 09:27:13;;;;;;;;;;;;;;;;;;141320;1244;22239;-84
2023/06/09 09:30:14;;;;;;;;;;;;;;;;;;141287;1244;22237;-84
2023/06/09 09:33:16;;;;;;;;;;;;;;;;;;141291;1244;22178;-82
2023/06/09 09:36:17;;;;;;;;;;;;;;;;;;141299;1244;22247;-83
2023/06/09 09:39:20;;;;;;;;;;;;;;;;;;141345;1244;22158;-85
2023/06/09 09:42:21;;;;;;;;;;;;;;;;;;141383;1244;22167;-83
2023/06/09 09:45:22;;;;;;;;;;;;;;;;;;141343;1244;22354;-83
2023/06/09 09:48:24;;;;;;;;;;;;;;;;;;141404;1243;22207;-83
2023/06/09 09:51:25;;;;;;;;;;;;;;;;;;141409;1244;22153;-83
2023/06/09 09:54:26;;;;;;;;;;;;;;;;;;141394;1244;22304;-83
2023/06/09 09:57:28;;;;;;;;;;;;;;;;;;141412;1244;22268;-82
2023/06/09 10:00:29;;;;;;;;;;;;;;;;;;141401;1244;22559;-86
2023/06/09 10:03:33;;;;;;;;;;;;;;;;;;141487;1244;22316;-85
2023/06/09 10:06:38;;;;;;;;;;;;;;;;;;141484;1244;22197;-84
2023/06/09 10:09:39;;;;;;;;;;;;;;;;;;141460;1244;22420;-84
2023/06/09 10:12:48;;;;;;;;;;;;;;;;;;141487;1244;22662;-86
2023/06/09 10:15:50;;;;;;;;;;;;;;;;;;141381;1244;22361;-84
2023/06/09 10:18:52;;;;;;;;;;;;;;;;;;141522;1244;22538;-85
2023/06/09 10:21:56;;;;;;;;;;;;;;;;;;141358;1244;22397;-85
2023/06/09 10:25:00;;;;;;;;;;;;;;;;;;140556;1245;23130;-86
2023/06/09 10:28:04;;;;;;;;;;;;;;;;;;140685;1250;22354;-84
2023/06/09 10:31:07;;;;;;;;;;;;;;;;;;140718;1249;22800;-85
2023/06/09 10:34:09;;;;;;;;;;;;;;;;;;140651;1250;23053;-83
2023/06/09 10:37:10;;;;;;;;;;;;;;;;;;140682;1250;22280;-85
2023/06/09 10:40:12;;;;;;;;;;;;;;;;;;140695;1250;22410;-82
2023/06/09 10:43:14;;;;;;;;;;;;;;;;;;140688;1250;22229;-84
2023/06/09 10:46:15;;;;;;;;;;;;;;;;;;140561;1250;22387;-84
2023/06/09 10:49:16;;;;;;;;;;;;;;;;;;140733;1250;22518;-85
2023/06/09 10:52:17;;;;;;;;;;;;;;;;;;140621;1250;22179;-86
2023/06/09 10:55:21;;;;;;;;;;;;;;;;;;140980;1244;22374;-84
2023/06/09 10:58:25;;;;;;;;;;;;;;;;;;141513;1244;22657;-84
2023/06/09 11:01:26;;;;;;;;;;;;;;;;;;141493;1240;22224;-86
2023/06/09 11:04:28;;;;;;;;;;;;;;;;;;141486;1244;22245;-84
2023/06/09 11:07:31;;;;;;;;;;;;;;;;;;141533;1244;22681;-85
2023/06/09 11:10:32;;;;;;;;;;;;;;;;;;141442;1244;22292;-84
2023/06/09 11:13:33;;;;;;;;;;;;;;;;;;141515;1244;22648;-85
2023/06/09 11:16:34;;;;;;;;;;;;;;;;;;141467;1244;22678;-83
2023/06/09 11:19:36;;;;;;;;;;;;;;;;;;141452;1244;22240;-83
2023/06/09 11:22:37;;;;;;;;;;;;;;;;;;141435;1244;22674;-82
2023/06/09 11:25:41;;;;;;;;;;;;;;;;;;141417;1244;22274;-81
2023/06/09 11:28:42;;;;;;;;;;;;;;;;;;141451;1244;22721;-83
2023/06/09 11:31:43;;;;;;;;;;;;;;;;;;141453;1244;22305;-83
2023/06/09 11:34:45;;;;;;;;;;;;;;;;;;141422;1244;22136;-83
2023/06/09 11:37:46;;;;;;;;;;;;;;;;;;141455;1244;22280;-84
2023/06/09 11:40:50;;;;;;;;;;;;;;;;;;141445;1244;22202;-84
2023/06/09 11:43:51;;;;;;;;;;;;;;;;;;141448;1244;22357;-84
2023/06/09 11:46:55;;;;;;;;;;;;;;;;;;141519;1244;22283;-85
2023/06/09 11:49:56;;;;;;;;;;;;;;;;;;141491;1237;22413;-85
2023/06/09 11:52:57;;;;;;;;;;;;;;;;;;141462;1244;22275;-85
2023/06/09 11:55:59;;;;;;;;;;;;;;;;;;141433;1240;22212;-84
2023/06/09 11:59:00;;;;;;;;;;;;;;;;;;141513;1244;22273;-85
2023/06/09 12:02:02;;;;;;;;;;;;;;;;;;141446;1244;22674;-83
2023/06/09 12:05:03;;;;;;;;;;;;;;;;;;141393;1244;22232;-83
2023/06/09 12:08:04;;;;;;;;;;;;;;;;;;141267;1244;22491;-84
2023/06/09 12:11:05;;;;;;;;;;;;;;;;;;141306;1244;22256;-84
2023/06/09 12:14:06;;;;;;;;;;;;;;;;;;141415;1244;22356;-84
2023/06/09 12:17:09;;;;;;;;;;;;;;;;;;141461;1244;22147;-84
2023/06/09 12:20:10;;;;;;;;;;;;;;;;;;141498;1244;22174;-84
2023/06/09 12:23:12;;;;;;;;;;;;;;;;;;141467;1244;22142;-84
2023/06/09 12:26:20;;;;;;;;;;;;;;;;;;141380;1244;22258;-84
2023/06/09 12:29:21;;;;;;;;;;;;;;;;;;141474;1244;22257;-85
2023/06/09 12:32:23;;;;;;;;;;;;;;;;;;141427;1244;22280;-85
2023/06/09 12:35:24;;;;;;;;;;;;;;;;;;141392;1244;22623;-83
2023/06/09 12:38:27;;;;;;;;;;;;;;;;;;141340;1244;22148;-85
2023/06/09 12:41:28;;;;;;;;;;;;;;;;;;141380;1244;22955;-83
2023/06/09 12:44:30;;;;;;;;;;;;;;;;;;141477;1244;22373;-84
2023/06/09 12:47:31;;;;;;;;;;;;;;;;;;141403;1244;22154;-84
2023/06/09 12:50:32;;;;;;;;;;;;;;;;;;141344;1244;22180;-82
2023/06/09 12:53:34;;;;;;;;;;;;;;;;;;141325;1244;22244;-81
2023/06/09 12:56:35;;;;;;;;;;;;;;;;;;141303;1244;22699;-80
2023/06/09 12:59:36;;;;;;;;;;;;;;;;;;141351;1244;22308;-81
2023/06/09 13:02:37;;;;;;;;;;;;;;;;;;141364;1244;22597;-80
2023/06/09 13:05:38;;;;;;;;;;;;;;;;;;141346;1244;22543;-81
2023/06/09 13:08:39;;;;;;;;;;;;;;;;;;141327;1244;22225;-81
2023/06/09 13:11:40;;;;;;;;;;;;;;;;;;141357;1244;22252;-82
2023/06/09 13:14:41;;;;;;;;;;;;;;;;;;141401;1244;22737;-81
2023/06/09 13:17:42;;;;;;;;;;;;;;;;;;141579;1244;22256;-83
2023/06/09 13:20:43;;;;;;;;;;;;;;;;;;141520;1244;22245;-83
2023/06/09 13:23:45;;;;;;;;;;;;;;;;;;141520;1244;22161;-84
2023/06/09 13:26:48;;;;;;;;;;;;;;;;;;141496;1244;22329;-84
2023/06/09 13:29:49;;;;;;;;;;;;;;;;;;141467;1244;22175;-84
2023/06/09 13:32:50;;;;;;;;;;;;;;;;;;141460;1244;22595;-84
2023/06/09 13:35:52;;;;;;;;;;;;;;;;;;141450;1244;22173;-83
2023/06/09 13:38:53;;;;;;;;;;;;;;;;;;141502;1244;22347;-86
2023/06/09 13:41:54;;;;;;;;;;;;;;;;;;141435;1244;22286;-84
2023/06/09 13:44:55;;;;;;;;;;;;;;;;;;141496;1244;22163;-84
2023/06/09 13:47:56;;;;;;;;;;;;;;;;;;141508;1244;22255;-83
2023/06/09 13:50:58;;;;;;;;;;;;;;;;;;141442;1244;22248;-82
2023/06/09 13:54:00;;;;;;;;;;;;;;;;;;141442;1244;22199;-84
2023/06/09 13:57:01;;;;;;;;;;;;;;;;;;141438;1244;22314;-82
2023/06/09 14:00:02;;;;;;;;;;;;;;;;;;141450;1244;22255;-85
2023/06/09 14:03:03;;;;;;;;;;;;;;;;;;141606;1244;22269;-80
2023/06/09 14:06:05;;;;;;;;;;;;;;;;;;141575;1244;22240;-85
2023/06/09 14:09:07;;;;;;;;;;;;;;;;;;141556;1244;22978;-79
2023/06/09 14:12:08;;;;;;;;;;;;;;;;;;141468;1244;22245;-79
2023/06/09 14:15:12;;;;;;;;;;;;;;;;;;141450;1240;22147;-79
2023/06/09 14:18:14;;;;;;;;;;;;;;;;;;141511;1244;22163;-79
2023/06/09 14:21:15;;;;;;;;;;;;;;;;;;141435;1244;22258;-78
2023/06/09 14:24:16;;;;;;;;;;;;;;;;;;141406;1244;22282;-79
2023/06/09 14:27:17;;;;;;;;;;;;;;;;;;141350;1240;22389;-81
2023/06/09 14:30:18;;;;;;;;;;;;;;;;;;141094;1244;22266;-80
2023/06/09 14:33:19;;;;;;;;;;;;;;;;;;141373;1240;22233;-81
2023/06/09 14:36:20;;;;;;;;;;;;;;;;;;141399;1240;22199;-83
2023/06/09 14:39:21;;;;;;;;;;;;;;;;;;141163;1244;22270;-83
2023/06/09 14:42:22;;;;;;;;;;;;;;;;;;141481;1244;22147;-83
2023/06/09 14:45:23;;;;;;;;;;;;;;;;;;141497;1244;22224;-82
2023/06/09 14:48:25;;;;;;;;;;;;;;;;;;141455;1244;22132;-82
2023/06/09 14:51:26;;;;;;;;;;;;;;;;;;141457;1244;22275;-82
2023/06/09 14:54:27;;;;;;;;;;;;;;;;;;141558;1244;22254;-82
2023/06/09 14:57:28;;;;;;;;;;;;;;;;;;141464;1244;22322;-80
2023/06/09 15:00:29;;;;;;;;;;;;;;;;;;141488;1244;22155;-81
2023/06/09 15:03:30;;;;;;;;;;;;;;;;;;141451;1244;22157;-80
2023/06/09 15:06:32;;;;;;;;;;;;;;;;;;141476;1244;22233;-84
2023/06/09 15:09:33;;;;;;;;;;;;;;;;;;141526;1244;22161;-84
2023/06/09 15:12:36;;;;;;;;;;;;;;;;;;141556;1244;22226;-85
2023/06/09 15:15:37;;;;;;;;;;;;;;;;;;141218;1244;22274;-84
2023/06/09 15:18:38;;;;;;;;;;;;;;;;;;141511;1244;22278;-84
2023/06/09 15:21:39;;;;;;;;;;;;;;;;;;141510;1244;22240;-85
2023/06/09 15:24:40;;;;;;;;;;;;;;;;;;141529;1244;22407;-80
2023/06/09 15:27:42;;;;;;;;;;;;;;;;;;141626;1244;22225;-80
2023/06/09 15:30:43;;;;;;;;;;;;;;;;;;141646;1244;22138;-81
2023/06/09 15:33:44;;;;;;;;;;;;;;;;;;141628;1244;22282;-82
2023/06/09 15:36:45;;;;;;;;;;;;;;;;;;141629;1244;22261;-82
2023/06/09 15:39:46;;;;;;;;;;;;;;;;;;141660;1244;22256;-82
2023/06/09 15:42:48;;;;;;;;;;;;;;;;;;141688;1244;22146;-81
2023/06/09 15:45:50;;;;;;;;;;;;;;;;;;141736;1240;22172;-79
2023/06/09 15:48:53;;;;;;;;;;;;;;;;;;141641;1244;22149;-82
2023/06/09 15:51:54;;;;;;;;;;;;;;;;;;141620;1244;22165;-81
2023/06/09 15:54:55;;;;;;;;;;;;;;;;;;141604;1244;22312;-82
2023/06/09 15:57:56;;;;;;;;;;;;;;;;;;141581;1244;22223;-83
2023/06/09 16:00:57;;;;;;;;;;;;;;;;;;141613;1244;22104;-81
2023/06/09 16:03:58;;;;;;;;;;;;;;;;;;141603;1244;22652;-84
2023/06/09 16:07:00;;;;;;;;;;;;;;;;;;141566;1244;22243;-82
2023/06/09 16:10:06;;;;;;;;;;;;;;;;;;141579;1244;22145;-83
2023/06/09 16:13:07;;;;;;;;;;;;;;;;;;141608;1244;22155;-83
2023/06/09 16:16:08;;;;;;;;;;;;;;;;;;141609;1244;22257;-83
2023/06/09 16:19:09;;;;;;;;;;;;;;;;;;141610;1244;22256;-82
2023/06/09 16:22:10;;;;;;;;;;;;;;;;;;141581;1244;22136;-82
2023/06/09 16:25:11;;;;;;;;;;;;;;;;;;141563;1244;22374;-83
2023/06/09 16:28:12;;;;;;;;;;;;;;;;;;141506;1244;22102;-80
2023/06/09 16:31:13;;;;;;;;;;;;;;;;;;141488;1244;22245;-79
2023/06/09 16:34:15;;;;;;;;;;;;;;;;;;141387;1244;22220;-82
2023/06/09 16:37:16;;;;;;;;;;;;;;;;;;141463;1244;22154;-81
2023/06/09 16:40:17;;;;;;;;;;;;;;;;;;141620;1244;22286;-81
2023/06/09 16:43:18;;;;;;;;;;;;;;;;;;141519;1241;22194;-82
2023/06/09 16:46:20;;;;;;;;;;;;;;;;;;141550;1244;22122;-82
2023/06/09 16:49:21;;;;;;;;;;;;;;;;;;141417;1244;22318;-83
2023/06/09 16:52:22;;;;;;;;;;;;;;;;;;141423;1244;22222;-84
2023/06/09 16:55:24;;;;;;;;;;;;;;;;;;141497;1244;22305;-83
2023/06/09 16:58:25;;;;;;;;;;;;;;;;;;141462;1244;22165;-85
2023/06/09 17:01:26;;;;;;;;;;;;;;;;;;141474;1244;22149;-83
2023/06/09 17:04:27;;;;;;;;;;;;;;;;;;141468;1244;22143;-84
2023/06/09 17:07:31;;;;;;;;;;;;;;;;;;141352;1244;182772;-84
2023/06/09 17:10:32;;;;;;;;;;;;;;;;;;141555;1244;22710;-85
2023/06/09 17:13:33;;;;;;;;;;;;;;;;;;141517;1244;22120;-83
2023/06/09 17:16:34;;;;;;;;;;;;;;;;;;141492;1244;22639;-82
2023/06/09 17:19:35;;;;;;;;;;;;;;;;;;141499;1244;22269;-85
2023/06/09 17:22:36;;;;;;;;;;;;;;;;;;141606;1244;22236;-84
2023/06/09 17:25:38;;;;;;;;;;;;;;;;;;141499;1244;22348;-83
2023/06/09 17:28:39;;;;;;;;;;;;;;;;;;141496;1244;22228;-82
2023/06/09 17:31:40;;;;;;;;;;;;;;;;;;141482;1244;22133;-81
2023/06/09 17:34:41;;;;;;;;;;;;;;;;;;141493;1243;22174;-83
2023/06/09 17:37:42;;;;;;;;;;;;;;;;;;141470;1244;22387;-83
2023/06/09 17:40:43;;;;;;;;;;;;;;;;;;141493;1244;22174;-82
2023/06/09 17:43:44;;;;;;;;;;;;;;;;;;141450;1244;22240;-83
2023/06/09 17:46:45;;;;;;;;;;;;;;;;;;141475;1244;22134;-82
2023/06/09 17:49:46;;;;;;;;;;;;;;;;;;141488;1244;22263;-82
2023/06/09 17:52:48;;;;;;;;;;;;;;;;;;141503;1244;22319;-83
2023/06/09 17:55:49;;;;;;;;;;;;;;;;;;141485;1243;22313;-81
2023/06/09 17:58:50;;;;;;;;;;;;;;;;;;141241;1244;22259;-83
2023/06/09 18:01:51;;;;;;;;;;;;;;;;;;141528;1244;22158;-82
2023/06/09 18:04:52;;;;;;;;;;;;;;;;;;141484;1244;22275;-82
2023/06/09 18:07:53;;;;;;;;;;;;;;;;;;141465;1244;22233;-81
2023/06/09 18:10:54;;;;;;;;;;;;;;;;;;141443;1244;22147;-83
2023/06/09 18:13:55;;;;;;;;;;;;;;;;;;141469;1244;22221;-83
2023/06/09 18:16:56;;;;;;;;;;;;;;;;;;141487;1244;22246;-82
2023/06/09 18:19:58;;;;;;;;;;;;;;;;;;141461;1244;22162;-83
2023/06/09 18:22:59;;;;;;;;;;;;;;;;;;141464;1244;22248;-83
2023/06/09 18:26:00;;;;;;;;;;;;;;;;;;141490;1244;22359;-84
2023/06/09 18:29:02;;;;;;;;;;;;;;;;;;141476;1244;22206;-83
2023/06/09 18:32:04;;;;;;;;;;;;;;;;;;141587;1244;22238;-84
2023/06/09 18:35:05;;;;;;;;;;;;;;;;;;141550;1244;22261;-84
2023/06/09 18:38:06;;;;;;;;;;;;;;;;;;141621;1244;22139;-85
2023/06/09 18:41:07;;;;;;;;;;;;;;;;;;141715;1240;22186;-82
2023/06/09 18:44:09;;;;;;;;;;;;;;;;;;141722;1244;22120;-84
2023/06/09 18:47:11;;;;;;;;;;;;;;;;;;141697;1240;22131;-84
2023/06/09 18:50:13;;;;;;;;;;;;;;;;;;141735;1244;22645;-86
2023/06/09 18:53:14;;;;;;;;;;;;;;;;;;141635;1244;22257;-84
2023/06/09 18:56:16;;;;;;;;;;;;;;;;;;141584;1244;22379;-86
2023/06/09 18:59:17;;;;;;;;;;;;;;;;;;141574;1244;22235;-85
2023/06/09 19:02:27;;;;;;;;;;;;;;;;;;141524;1244;22281;-84
2023/06/09 19:05:28;;;;;;;;;;;;;;;;;;141230;1244;22243;-84
2023/06/09 19:08:29;;;;;;;;;;;;;;;;;;141437;1244;22175;-84
2023/06/09 19:11:30;;;;;;;;;;;;;;;;;;141416;1240;22240;-83
2023/06/09 19:14:32;;;;;;;;;;;;;;;;;;141388;1244;22221;-84
2023/06/09 19:17:33;;;;;;;;;;;;;;;;;;141368;1244;22220;-83
2023/06/09 19:20:34;;;;;;;;;;;;;;;;;;141405;1244;22123;-83
2023/06/09 19:23:35;;;;;;;;;;;;;;;;;;141402;1244;22322;-82
2023/06/09 19:26:39;;;;;;;;;;;;;;;;;;141416;1244;22368;-82
2023/06/09 19:29:40;;;;;;;;;;;;;;;;;;141411;1244;22146;-82
2023/06/09 19:32:41;;;;;;;;;;;;;;;;;;141439;1244;22162;-82
2023/06/09 19:35:42;;;;;;;;;;;;;;;;;;141411;1244;22106;-82
2023/06/09 19:38:43;;;;;;;;;;;;;;;;;;141472;1244;22616;-83
2023/06/09 19:41:44;;;;;;;;;;;;;;;;;;141424;1244;22219;-83
2023/06/09 19:44:46;;;;;;;;;;;;;;;;;;141450;1244;22097;-83
2023/06/09 19:47:47;;;;;;;;;;;;;;;;;;141433;1244;22236;-83
2023/06/09 19:50:48;;;;;;;;;;;;;;;;;;141428;1244;22153;-83
2023/06/09 19:53:49;;;;;;;;;;;;;;;;;;141411;1244;22177;-83
2023/06/09 19:56:50;;;;;;;;;;;;;;;;;;141420;1244;22299;-81
2023/06/09 19:59:53;;;;;;;;;;;;;;;;;;141430;1244;22357;-82
2023/06/09 20:02:54;;;;;;;;;;;;;;;;;;141438;1244;22371;-82
2023/06/09 20:05:55;;;;;;;;;;;;;;;;;;141407;1244;22231;-82
2023/06/09 20:08:56;;;;;;;;;;;;;;;;;;141185;1244;22352;-82
2023/06/09 20:11:57;;;;;;;;;;;;;;;;;;141433;1244;22262;-81
2023/06/09 20:14:58;;;;;;;;;;;;;;;;;;141423;1244;22229;-82
2023/06/09 20:17:59;;;;;;;;;;;;;;;;;;141430;1244;22777;-82